sensor_id;sensor_type;location;lat;lon;timestamp;pressure;altitude;pressure_sealevel;temperature;humidity
36328;BME280;22354;50.012;8.264;2022-08-21T00:01:26;100732.13;;;19.51;100.00
36328;BME280;22354;50.012;8.264;2022-08-21T00:03:53;100718.97;;;19.48;100.00
36328;BME280;22354;50.012;8.264;2022-08-21T00:06:20;100726.03;;;19.35;100.00
36328;BME280;22354;50.012;8.264;2022-08-21T00:08:45;100718.81;;;19.56;100.00
36328;BME280;22354;50.012;8.264;2022-08-21T00:11:11;100719.69;;;19.69;100.00
36328;BME280;22354;50.012;8.264;2022-08-21T00:13:36;100719.88;;;19.61;100.00
36328;BME280;22354;50.012;8.264;2022-08-21T00:16:02;100715.91;;;19.70;100.00
36328;BME280;22354;50.012;8.264;2022-08-21T00:18:28;100718.84;;;19.69;100.00
36328;BME280;22354;50.012;8.264;2022-08-21T00:20:54;100719.72;;;19.96;100.00
36328;BME280;22354;50.012;8.264;2022-08-21T00:23:19;100710.28;;;19.85;100.00
36328;BME280;22354;50.012;8.264;2022-08-21T00:25:45;100713.03;;;19.98;100.00
36328;BME280;22354;50.012;8.264;2022-08-21T00:28:12;100710.28;;;19.85;100.00
36328;BME280;22354;50.012;8.264;2022-08-21T00:30:38;100704.22;;;19.83;100.00
36328;BME280;22354;50.012;8.264;2022-08-21T00:33:05;100709.22;;;19.73;100.00
36328;BME280;22354;50.012;8.264;2022-08-21T00:35:34;100711.09;;;19.72;100.00
36328;BME280;22354;50.012;8.264;2022-08-21T00:38:00;100707.38;;;19.87;100.00
36328;BME280;22354;50.012;8.264;2022-08-21T00:40:48;100707.13;;;19.68;100.00
36328;BME280;22354;50.012;8.264;2022-08-21T00:43:16;100713.59;;;19.61;100.00
36328;BME280;22354;50.012;8.264;2022-08-21T00:45:42;100710.03;;;19.60;100.00
36328;BME280;22354;50.012;8.264;2022-08-21T00:48:08;100711.06;;;19.66;100.00
36328;BME280;22354;50.012;8.264;2022-08-21T00:50:40;100710.66;;;19.56;100.00
36328;BME280;22354;50.012;8.264;2022-08-21T00:53:07;100711.41;;;19.36;100.00
36328;BME280;22354;50.012;8.264;2022-08-21T00:55:34;100706.44;;;19.53;100.00
36328;BME280;22354;50.012;8.264;2022-08-21T00:58:06;100707.88;;;19.49;100.00
36328;BME280;22354;50.012;8.264;2022-08-21T01:00:35;100708.00;;;19.21;100.00
36328;BME280;22354;50.012;8.264;2022-08-21T01:03:07;100709.94;;;19.34;100.00
36328;BME280;22354;50.012;8.264;2022-08-21T01:05:33;100706.50;;;19.12;100.00
36328;BME280;22354;50.012;8.264;2022-08-21T01:07:58;100708.41;;;19.18;100.00
36328;BME280;22354;50.012;8.264;2022-08-21T01:10:24;100713.78;;;19.05;100.00
36328;BME280;22354;50.012;8.264;2022-08-21T01:12:55;100714.19;;;19.02;100.00
36328;BME280;22354;50.012;8.264;2022-08-21T01:15:22;100713.84;;;19.18;100.00
36328;BME280;22354;50.012;8.264;2022-08-21T01:17:49;100710.34;;;19.31;100.00
36328;BME280;22354;50.012;8.264;2022-08-21T01:20:14;100713.66;;;19.20;100.00
36328;BME280;22354;50.012;8.264;2022-08-21T01:22:40;100713.53;;;18.93;100.00
36328;BME280;22354;50.012;8.264;2022-08-21T01:25:07;100706.06;;;18.67;100.00
36328;BME280;22354;50.012;8.264;2022-08-21T01:27:33;100708.09;;;18.93;100.00
36328;BME280;22354;50.012;8.264;2022-08-21T01:30:28;100707.06;;;18.94;100.00
36328;BME280;22354;50.012;8.264;2022-08-21T01:32:54;100711.00;;;18.92;100.00
36328;BME280;22354;50.012;8.264;2022-08-21T01:35:20;100703.78;;;18.71;100.00
36328;BME280;22354;50.012;8.264;2022-08-21T01:37:47;100707.94;;;18.67;100.00
36328;BME280;22354;50.012;8.264;2022-08-21T01:40:15;100707.13;;;18.66;100.00
36328;BME280;22354;50.012;8.264;2022-08-21T01:42:42;100702.13;;;18.70;100.00
36328;BME280;22354;50.012;8.264;2022-08-21T01:45:08;100698.34;;;18.71;100.00
36328;BME280;22354;50.012;8.264;2022-08-21T01:47:34;100702.53;;;18.73;100.00
36328;BME280;22354;50.012;8.264;2022-08-21T01:49:59;100704.50;;;18.58;100.00
36328;BME280;22354;50.012;8.264;2022-08-21T01:52:25;100688.34;;;18.71;100.00
36328;BME280;22354;50.012;8.264;2022-08-21T01:54:51;100691.56;;;18.53;100.00
36328;BME280;22354;50.012;8.264;2022-08-21T01:57:16;100693.22;;;18.54;100.00
36328;BME280;22354;50.012;8.264;2022-08-21T01:59:42;100692.81;;;18.57;100.00
36328;BME280;22354;50.012;8.264;2022-08-21T02:02:07;100691.88;;;18.65;100.00
36328;BME280;22354;50.012;8.264;2022-08-21T02:04:32;100685.78;;;18.63;100.00
36328;BME280;22354;50.012;8.264;2022-08-21T02:06:59;100687.19;;;18.59;100.00
36328;BME280;22354;50.012;8.264;2022-08-21T02:09:25;100685.22;;;18.46;100.00
36328;BME280;22354;50.012;8.264;2022-08-21T02:11:51;100686.91;;;18.47;100.00
36328;BME280;22354;50.012;8.264;2022-08-21T02:14:16;100681.56;;;18.26;100.00
36328;BME280;22354;50.012;8.264;2022-08-21T02:16:43;100682.22;;;18.35;100.00
36328;BME280;22354;50.012;8.264;2022-08-21T02:19:09;100678.09;;;18.39;100.00
36328;BME280;22354;50.012;8.264;2022-08-21T02:21:35;100681.03;;;18.44;100.00
36328;BME280;22354;50.012;8.264;2022-08-21T02:24:01;100684.72;;;18.30;100.00
36328;BME280;22354;50.012;8.264;2022-08-21T02:26:26;100684.09;;;18.34;100.00
36328;BME280;22354;50.012;8.264;2022-08-21T02:28:52;100684.16;;;18.13;100.00
36328;BME280;22354;50.012;8.264;2022-08-21T02:31:17;100688.25;;;18.02;100.00
36328;BME280;22354;50.012;8.264;2022-08-21T02:33:43;100688.38;;;18.22;100.00
36328;BME280;22354;50.012;8.264;2022-08-21T02:36:10;100683.06;;;18.07;100.00
36328;BME280;22354;50.012;8.264;2022-08-21T02:38:37;100683.69;;;18.09;100.00
36328;BME280;22354;50.012;8.264;2022-08-21T02:41:07;100683.06;;;18.07;100.00
36328;BME280;22354;50.012;8.264;2022-08-21T02:43:33;100676.91;;;18.20;100.00
36328;BME280;22354;50.012;8.264;2022-08-21T02:45:59;100679.31;;;18.08;100.00
36328;BME280;22354;50.012;8.264;2022-08-21T02:48:29;100677.91;;;18.12;100.00
36328;BME280;22354;50.012;8.264;2022-08-21T02:50:58;100687.72;;;18.13;100.00
36328;BME280;22354;50.012;8.264;2022-08-21T02:53:25;100689.47;;;18.00;100.00
36328;BME280;22354;50.012;8.264;2022-08-21T02:55:51;100690.75;;;18.04;100.00
36328;BME280;22354;50.012;8.264;2022-08-21T02:58:21;100696.06;;;17.90;100.00
36328;BME280;22354;50.012;8.264;2022-08-21T03:00:47;100688.91;;;17.83;100.00
36328;BME280;22354;50.012;8.264;2022-08-21T03:03:13;100697.56;;;18.21;100.00
36328;BME280;22354;50.012;8.264;2022-08-21T03:05:40;100687.09;;;18.11;100.00
36328;BME280;22354;50.012;8.264;2022-08-21T03:08:07;100694.06;;;17.99;100.00
36328;BME280;22354;50.012;8.264;2022-08-21T03:10:36;100690.00;;;17.88;100.00
36328;BME280;22354;50.012;8.264;2022-08-21T03:13:02;100687.72;;;17.92;100.00
36328;BME280;22354;50.012;8.264;2022-08-21T03:15:28;100687.50;;;17.87;100.00
36328;BME280;22354;50.012;8.264;2022-08-21T03:17:53;100685.03;;;17.71;100.00
36328;BME280;22354;50.012;8.264;2022-08-21T03:20:22;100684.25;;;17.77;100.00
36328;BME280;22354;50.012;8.264;2022-08-21T03:22:48;100683.47;;;17.83;100.00
36328;BME280;22354;50.012;8.264;2022-08-21T03:25:13;100682.84;;;17.81;100.00
36328;BME280;22354;50.012;8.264;2022-08-21T03:27:38;100683.44;;;17.76;100.00
36328;BME280;22354;50.012;8.264;2022-08-21T03:30:05;100675.34;;;17.83;100.00
36328;BME280;22354;50.012;8.264;2022-08-21T03:32:31;100679.97;;;17.67;100.00
36328;BME280;22354;50.012;8.264;2022-08-21T03:34:57;100684.19;;;17.70;100.00
36328;BME280;22354;50.012;8.264;2022-08-21T03:37:23;100680.09;;;17.74;100.00
36328;BME280;22354;50.012;8.264;2022-08-21T03:39:49;100681.94;;;17.74;100.00
36328;BME280;22354;50.012;8.264;2022-08-21T03:42:14;100685.53;;;17.59;100.00
36328;BME280;22354;50.012;8.264;2022-08-21T03:44:40;100688.56;;;17.50;100.00
36328;BME280;22354;50.012;8.264;2022-08-21T03:47:05;100683.22;;;17.78;100.00
36328;BME280;22354;50.012;8.264;2022-08-21T03:49:30;100688.78;;;17.69;100.00
36328;BME280;22354;50.012;8.264;2022-08-21T03:51:55;100673.94;;;17.87;100.00
36328;BME280;22354;50.012;8.264;2022-08-21T03:54:21;100682.31;;;17.92;100.00
36328;BME280;22354;50.012;8.264;2022-08-21T03:56:46;100686.06;;;17.91;100.00
36328;BME280;22354;50.012;8.264;2022-08-21T03:59:12;100691.44;;;17.84;100.00
36328;BME280;22354;50.012;8.264;2022-08-21T04:01:37;100689.97;;;17.67;100.00
36328;BME280;22354;50.012;8.264;2022-08-21T04:04:04;100696.34;;;17.74;100.00
36328;BME280;22354;50.012;8.264;2022-08-21T04:06:29;100689.09;;;17.60;100.00
36328;BME280;22354;50.012;8.264;2022-08-21T04:08:55;100695.66;;;17.51;100.00
36328;BME280;22354;50.012;8.264;2022-08-21T04:11:20;100696.56;;;17.58;100.00
36328;BME280;22354;50.012;8.264;2022-08-21T04:13:46;100700.97;;;17.80;100.00
36328;BME280;22354;50.012;8.264;2022-08-21T04:16:12;100691.84;;;17.45;100.00
36328;BME280;22354;50.012;8.264;2022-08-21T04:18:38;100696.78;;;17.42;100.00
36328;BME280;22354;50.012;8.264;2022-08-21T04:21:03;100702.06;;;17.28;100.00
36328;BME280;22354;50.012;8.264;2022-08-21T04:23:29;100706.69;;;16.98;100.00
36328;BME280;22354;50.012;8.264;2022-08-21T04:25:56;100711.16;;;16.91;100.00
36328;BME280;22354;50.012;8.264;2022-08-21T04:28:23;100721.06;;;16.84;100.00
36328;BME280;22354;50.012;8.264;2022-08-21T04:30:50;100727.31;;;16.85;100.00
36328;BME280;22354;50.012;8.264;2022-08-21T04:33:16;100727.31;;;16.99;100.00
36328;BME280;22354;50.012;8.264;2022-08-21T04:35:41;100728.06;;;16.93;100.00
36328;BME280;22354;50.012;8.264;2022-08-21T04:38:07;100730.03;;;16.99;100.00
36328;BME280;22354;50.012;8.264;2022-08-21T04:40:33;100727.88;;;17.09;100.00
36328;BME280;22354;50.012;8.264;2022-08-21T04:43:04;100733.84;;;17.20;100.00
36328;BME280;22354;50.012;8.264;2022-08-21T04:45:33;100737.94;;;17.16;100.00
36328;BME280;22354;50.012;8.264;2022-08-21T04:48:01;100728.06;;;17.08;100.00
36328;BME280;22354;50.012;8.264;2022-08-21T04:53:00;100734.09;;;17.61;100.00
36328;BME280;22354;50.012;8.264;2022-08-21T04:55:26;100734.00;;;17.54;100.00
36328;BME280;22354;50.012;8.264;2022-08-21T04:57:53;100741.19;;;17.26;100.00
36328;BME280;22354;50.012;8.264;2022-08-21T05:00:19;100733.28;;;17.09;100.00
36328;BME280;22354;50.012;8.264;2022-08-21T05:02:46;100737.53;;;17.69;100.00
36328;BME280;22354;50.012;8.264;2022-08-21T05:05:17;100751.03;;;17.48;100.00
36328;BME280;22354;50.012;8.264;2022-08-21T05:07:43;100732.63;;;17.58;100.00
36328;BME280;22354;50.012;8.264;2022-08-21T05:10:09;100740.28;;;17.55;100.00
36328;BME280;22354;50.012;8.264;2022-08-21T05:12:35;100750.94;;;17.71;100.00
36328;BME280;22354;50.012;8.264;2022-08-21T05:15:01;100750.75;;;17.58;100.00
36328;BME280;22354;50.012;8.264;2022-08-21T05:17:26;100750.91;;;17.20;100.00
36328;BME280;22354;50.012;8.264;2022-08-21T05:19:51;100753.31;;;17.30;100.00
36328;BME280;22354;50.012;8.264;2022-08-21T05:22:21;100759.22;;;17.55;100.00
36328;BME280;22354;50.012;8.264;2022-08-21T05:24:46;100758.75;;;17.66;100.00
36328;BME280;22354;50.012;8.264;2022-08-21T05:27:12;100746.66;;;17.47;100.00
36328;BME280;22354;50.012;8.264;2022-08-21T05:29:37;100748.44;;;17.40;100.00
36328;BME280;22354;50.012;8.264;2022-08-21T05:32:08;100755.53;;;17.41;100.00
36328;BME280;22354;50.012;8.264;2022-08-21T05:34:34;100747.84;;;17.59;100.00
36328;BME280;22354;50.012;8.264;2022-08-21T05:37:00;100758.47;;;17.76;100.00
36328;BME280;22354;50.012;8.264;2022-08-21T05:39:25;100752.44;;;17.59;100.00
36328;BME280;22354;50.012;8.264;2022-08-21T05:41:50;100756.34;;;17.71;100.00
36328;BME280;22354;50.012;8.264;2022-08-21T05:44:16;100757.38;;;17.55;100.00
36328;BME280;22354;50.012;8.264;2022-08-21T05:46:41;100757.59;;;17.39;100.00
36328;BME280;22354;50.012;8.264;2022-08-21T05:49:06;100765.63;;;17.47;100.00
36328;BME280;22354;50.012;8.264;2022-08-21T05:51:32;100756.94;;;17.37;100.00
36328;BME280;22354;50.012;8.264;2022-08-21T05:53:57;100753.28;;;17.45;100.00
36328;BME280;22354;50.012;8.264;2022-08-21T05:56:22;100755.81;;;17.46;100.00
36328;BME280;22354;50.012;8.264;2022-08-21T05:58:48;100754.56;;;17.63;100.00
36328;BME280;22354;50.012;8.264;2022-08-21T06:01:13;100760.06;;;17.70;100.00
36328;BME280;22354;50.012;8.264;2022-08-21T06:03:40;100755.16;;;17.80;100.00
36328;BME280;22354;50.012;8.264;2022-08-21T06:06:06;100749.75;;;18.23;100.00
36328;BME280;22354;50.012;8.264;2022-08-21T06:08:31;100759.69;;;18.16;100.00
36328;BME280;22354;50.012;8.264;2022-08-21T06:10:58;100760.00;;;18.06;100.00
36328;BME280;22354;50.012;8.264;2022-08-21T06:13:25;100758.50;;;17.97;100.00
36328;BME280;22354;50.012;8.264;2022-08-21T06:16:01;100760.53;;;18.16;100.00
36328;BME280;22354;50.012;8.264;2022-08-21T06:18:26;100755.50;;;18.13;100.00
36328;BME280;22354;50.012;8.264;2022-08-21T06:20:52;100751.75;;;18.14;100.00
36328;BME280;22354;50.012;8.264;2022-08-21T06:23:17;100748.88;;;18.22;100.00
36328;BME280;22354;50.012;8.264;2022-08-21T06:25:42;100748.63;;;18.39;100.00
36328;BME280;22354;50.012;8.264;2022-08-21T06:28:09;100745.75;;;18.47;100.00
36328;BME280;22354;50.012;8.264;2022-08-21T06:30:36;100745.59;;;18.76;100.00
36328;BME280;22354;50.012;8.264;2022-08-21T06:33:03;100744.03;;;18.95;100.00
36328;BME280;22354;50.012;8.264;2022-08-21T06:35:28;100746.53;;;18.97;100.00
36328;BME280;22354;50.012;8.264;2022-08-21T06:37:56;100742.91;;;18.83;100.00
36328;BME280;22354;50.012;8.264;2022-08-21T06:40:21;100746.13;;;19.00;100.00
36328;BME280;22354;50.012;8.264;2022-08-21T06:42:47;100736.50;;;18.91;100.00
36328;BME280;22354;50.012;8.264;2022-08-21T06:45:12;100730.59;;;18.87;100.00
36328;BME280;22354;50.012;8.264;2022-08-21T06:47:38;100739.13;;;19.25;100.00
36328;BME280;22354;50.012;8.264;2022-08-21T06:50:04;100735.38;;;19.20;100.00
36328;BME280;22354;50.012;8.264;2022-08-21T06:52:29;100743.28;;;19.14;100.00
36328;BME280;22354;50.012;8.264;2022-08-21T06:54:55;100745.50;;;19.52;100.00
36328;BME280;22354;50.012;8.264;2022-08-21T06:57:21;100750.09;;;19.45;100.00
36328;BME280;22354;50.012;8.264;2022-08-21T06:59:46;100743.84;;;19.44;100.00
36328;BME280;22354;50.012;8.264;2022-08-21T07:02:12;100745.28;;;19.47;100.00
36328;BME280;22354;50.012;8.264;2022-08-21T07:04:37;100741.47;;;20.02;100.00
36328;BME280;22354;50.012;8.264;2022-08-21T07:07:02;100741.25;;;20.04;100.00
36328;BME280;22354;50.012;8.264;2022-08-21T07:09:27;100742.06;;;19.91;100.00
36328;BME280;22354;50.012;8.264;2022-08-21T07:11:54;100738.91;;;19.74;100.00
36328;BME280;22354;50.012;8.264;2022-08-21T07:14:20;100747.09;;;19.88;100.00
36328;BME280;22354;50.012;8.264;2022-08-21T07:16:47;100746.25;;;19.87;100.00
36328;BME280;22354;50.012;8.264;2022-08-21T07:19:12;100745.44;;;19.80;100.00
36328;BME280;22354;50.012;8.264;2022-08-21T07:21:37;100747.47;;;19.65;100.00
36328;BME280;22354;50.012;8.264;2022-08-21T07:24:03;100741.88;;;19.86;100.00
36328;BME280;22354;50.012;8.264;2022-08-21T07:26:28;100745.81;;;19.70;100.00
36328;BME280;22354;50.012;8.264;2022-08-21T07:28:53;100753.13;;;19.70;100.00
36328;BME280;22354;50.012;8.264;2022-08-21T07:31:24;100743.72;;;19.72;100.00
36328;BME280;22354;50.012;8.264;2022-08-21T07:33:49;100743.97;;;19.97;100.00
36328;BME280;22354;50.012;8.264;2022-08-21T07:36:15;100744.81;;;19.98;100.00
36328;BME280;22354;50.012;8.264;2022-08-21T07:38:40;100746.50;;;20.06;100.00
36328;BME280;22354;50.012;8.264;2022-08-21T07:41:17;100741.94;;;20.52;100.00
36328;BME280;22354;50.012;8.264;2022-08-21T07:43:43;100737.31;;;20.33;100.00
36328;BME280;22354;50.012;8.264;2022-08-21T07:46:09;100735.41;;;20.27;100.00
36328;BME280;22354;50.012;8.264;2022-08-21T07:51:02;100734.16;;;20.56;100.00
36328;BME280;22354;50.012;8.264;2022-08-21T07:53:29;100732.09;;;20.45;100.00
36328;BME280;22354;50.012;8.264;2022-08-21T07:55:57;100730.63;;;20.62;100.00
36328;BME280;22354;50.012;8.264;2022-08-21T07:58:22;100725.28;;;21.00;100.00
36328;BME280;22354;50.012;8.264;2022-08-21T08:00:48;100722.06;;;21.30;100.00
36328;BME280;22354;50.012;8.264;2022-08-21T08:03:13;100731.59;;;21.52;100.00
36328;BME280;22354;50.012;8.264;2022-08-21T08:05:38;100721.75;;;21.44;100.00
36328;BME280;22354;50.012;8.264;2022-08-21T08:08:04;100721.59;;;21.33;100.00
36328;BME280;22354;50.012;8.264;2022-08-21T08:10:30;100725.78;;;21.42;100.00
36328;BME280;22354;50.012;8.264;2022-08-21T08:12:55;100719.84;;;21.52;100.00
36328;BME280;22354;50.012;8.264;2022-08-21T08:15:23;100722.38;;;21.46;100.00
36328;BME280;22354;50.012;8.264;2022-08-21T08:17:49;100724.69;;;21.49;100.00
36328;BME280;22354;50.012;8.264;2022-08-21T08:20:16;100712.81;;;21.69;100.00
36328;BME280;22354;50.012;8.264;2022-08-21T08:22:43;100711.81;;;21.63;100.00
36328;BME280;22354;50.012;8.264;2022-08-21T08:25:11;100714.09;;;21.98;100.00
36328;BME280;22354;50.012;8.264;2022-08-21T08:27:38;100711.84;;;22.20;100.00
36328;BME280;22354;50.012;8.264;2022-08-21T08:30:05;100716.28;;;22.39;100.00
36328;BME280;22354;50.012;8.264;2022-08-21T08:32:31;100707.00;;;22.47;100.00
36328;BME280;22354;50.012;8.264;2022-08-21T08:34:56;100701.66;;;22.52;100.00
36328;BME280;22354;50.012;8.264;2022-08-21T08:37:21;100704.66;;;22.25;100.00
36328;BME280;22354;50.012;8.264;2022-08-21T08:39:49;100698.50;;;22.55;100.00
36328;BME280;22354;50.012;8.264;2022-08-21T08:42:30;100698.00;;;22.40;100.00
36328;BME280;22354;50.012;8.264;2022-08-21T08:45:03;100687.72;;;22.78;100.00
36328;BME280;22354;50.012;8.264;2022-08-21T08:47:31;100687.59;;;23.28;100.00
36328;BME280;22354;50.012;8.264;2022-08-21T08:50:08;100689.81;;;23.01;100.00
36328;BME280;22354;50.012;8.264;2022-08-21T08:52:41;100686.31;;;22.76;100.00
36328;BME280;22354;50.012;8.264;2022-08-21T08:55:13;100688.38;;;22.99;100.00
36328;BME280;22354;50.012;8.264;2022-08-21T08:57:44;100686.44;;;23.17;100.00
36328;BME280;22354;50.012;8.264;2022-08-21T09:00:12;100687.91;;;23.02;100.00
36328;BME280;22354;50.012;8.264;2022-08-21T09:02:39;100689.84;;;22.83;100.00
36328;BME280;22354;50.012;8.264;2022-08-21T09:05:06;100685.56;;;22.69;100.00
36328;BME280;22354;50.012;8.264;2022-08-21T09:07:51;100675.22;;;22.71;100.00
36328;BME280;22354;50.012;8.264;2022-08-21T09:10:30;100679.59;;;22.97;100.00
36328;BME280;22354;50.012;8.264;2022-08-21T09:18:52;100669.50;;;23.87;100.00
36328;BME280;22354;50.012;8.264;2022-08-21T09:21:42;100673.19;;;23.93;100.00
36328;BME280;22354;50.012;8.264;2022-08-21T09:24:26;100664.19;;;24.16;100.00
36328;BME280;22354;50.012;8.264;2022-08-21T09:27:07;100676.13;;;23.79;100.00
36328;BME280;22354;50.012;8.264;2022-08-21T09:29:38;100673.78;;;23.53;100.00
36328;BME280;22354;50.012;8.264;2022-08-21T09:32:10;100674.59;;;23.72;100.00
36328;BME280;22354;50.012;8.264;2022-08-21T09:34:36;100674.16;;;23.87;100.00
36328;BME280;22354;50.012;8.264;2022-08-21T09:37:01;100679.31;;;23.65;100.00
36328;BME280;22354;50.012;8.264;2022-08-21T09:39:32;100677.69;;;23.45;100.00
36328;BME280;22354;50.012;8.264;2022-08-21T09:42:04;100674.81;;;23.40;100.00
36328;BME280;22354;50.012;8.264;2022-08-21T09:44:33;100675.63;;;23.11;100.00
36328;BME280;22354;50.012;8.264;2022-08-21T09:46:59;100666.53;;;23.29;100.00
36328;BME280;22354;50.012;8.264;2022-08-21T09:49:36;100668.59;;;23.33;100.00
36328;BME280;22354;50.012;8.264;2022-08-21T09:52:05;100658.38;;;23.59;100.00
36328;BME280;22354;50.012;8.264;2022-08-21T09:54:37;100657.91;;;23.62;100.00
36328;BME280;22354;50.012;8.264;2022-08-21T09:57:13;100651.56;;;24.03;100.00
36328;BME280;22354;50.012;8.264;2022-08-21T10:00:31;100645.81;;;23.93;100.00
36328;BME280;22354;50.012;8.264;2022-08-21T10:03:19;100637.03;;;24.02;100.00
36328;BME280;22354;50.012;8.264;2022-08-21T10:05:54;100632.53;;;24.31;100.00
36328;BME280;22354;50.012;8.264;2022-08-21T10:08:22;100633.84;;;24.29;100.00
36328;BME280;22354;50.012;8.264;2022-08-21T10:10:51;100616.34;;;24.41;100.00
36328;BME280;22354;50.012;8.264;2022-08-21T10:13:20;100614.09;;;24.90;100.00
36328;BME280;22354;50.012;8.264;2022-08-21T10:21:47;100624.25;;;24.90;100.00
36328;BME280;22354;50.012;8.264;2022-08-21T10:24:26;100614.59;;;24.87;100.00
36328;BME280;22354;50.012;8.264;2022-08-21T10:43:16;100613.34;;;24.66;100.00
36328;BME280;22354;50.012;8.264;2022-08-21T10:48:22;100604.75;;;25.15;100.00
36328;BME280;22354;50.012;8.264;2022-08-21T10:53:55;100599.66;;;25.07;100.00
36328;BME280;22354;50.012;8.264;2022-08-21T10:56:28;100588.00;;;25.45;100.00
36328;BME280;22354;50.012;8.264;2022-08-21T10:59:04;100581.44;;;25.46;100.00
36328;BME280;22354;50.012;8.264;2022-08-21T11:01:46;100585.72;;;25.53;100.00
36328;BME280;22354;50.012;8.264;2022-08-21T11:04:20;100582.53;;;25.62;100.00
36328;BME280;22354;50.012;8.264;2022-08-21T11:06:52;100580.72;;;26.01;100.00
36328;BME280;22354;50.012;8.264;2022-08-21T11:09:20;100575.84;;;25.69;100.00
36328;BME280;22354;50.012;8.264;2022-08-21T11:14:34;100565.91;;;25.51;100.00
36328;BME280;22354;50.012;8.264;2022-08-21T11:17:07;100577.97;;;24.93;100.00
36328;BME280;22354;50.012;8.264;2022-08-21T11:19:52;100568.09;;;25.04;100.00
36328;BME280;22354;50.012;8.264;2022-08-21T11:22:26;100573.09;;;24.95;100.00
36328;BME280;22354;50.012;8.264;2022-08-21T11:30:04;100571.47;;;24.83;100.00
36328;BME280;22354;50.012;8.264;2022-08-21T11:35:33;100569.16;;;25.03;100.00
36328;BME280;22354;50.012;8.264;2022-08-21T11:38:52;100558.94;;;25.44;100.00
36328;BME280;22354;50.012;8.264;2022-08-21T11:41:30;100548.63;;;25.84;100.00
36328;BME280;22354;50.012;8.264;2022-08-21T11:44:17;100542.44;;;26.11;100.00
36328;BME280;22354;50.012;8.264;2022-08-21T11:46:49;100541.41;;;26.17;100.00
36328;BME280;22354;50.012;8.264;2022-08-21T11:49:42;100542.44;;;26.11;100.00
36328;BME280;22354;50.012;8.264;2022-08-21T11:52:25;100542.97;;;25.74;100.00
36328;BME280;22354;50.012;8.264;2022-08-21T11:55:27;100531.16;;;25.91;100.00
36328;BME280;22354;50.012;8.264;2022-08-21T11:57:58;100540.41;;;27.11;100.00
36328;BME280;22354;50.012;8.264;2022-08-21T12:00:30;100529.56;;;27.31;100.00
36328;BME280;22354;50.012;8.264;2022-08-21T12:03:09;100531.34;;;26.88;100.00
36328;BME280;22354;50.012;8.264;2022-08-21T12:05:41;100529.91;;;27.08;100.00
36328;BME280;22354;50.012;8.264;2022-08-21T12:08:13;100521.88;;;27.33;100.00
36328;BME280;22354;50.012;8.264;2022-08-21T12:10:45;100524.72;;;27.43;100.00
36328;BME280;22354;50.012;8.264;2022-08-21T12:13:29;100522.47;;;27.35;100.00
36328;BME280;22354;50.012;8.264;2022-08-21T12:16:15;100528.41;;;27.54;100.00
36328;BME280;22354;50.012;8.264;2022-08-21T12:19:03;100520.13;;;28.33;100.00
36328;BME280;22354;50.012;8.264;2022-08-21T12:21:28;100520.28;;;28.74;100.00
36328;BME280;22354;50.012;8.264;2022-08-21T12:26:47;100516.97;;;27.67;100.00
36328;BME280;22354;50.012;8.264;2022-08-21T12:29:27;100518.84;;;27.61;100.00
36328;BME280;22354;50.012;8.264;2022-08-21T12:32:00;100524.97;;;26.61;100.00
36328;BME280;22354;50.012;8.264;2022-08-21T12:34:38;100523.72;;;26.47;100.00
36328;BME280;22354;50.012;8.264;2022-08-21T12:37:41;100524.25;;;26.27;100.00
36328;BME280;22354;50.012;8.264;2022-08-21T12:40:23;100527.16;;;26.59;100.00
36328;BME280;22354;50.012;8.264;2022-08-21T12:42:52;100513.66;;;27.06;100.00
36328;BME280;22354;50.012;8.264;2022-08-21T12:45:28;100519.56;;;26.44;100.00
36328;BME280;22354;50.012;8.264;2022-08-21T12:48:02;100514.72;;;26.12;100.00
36328;BME280;22354;50.012;8.264;2022-08-21T12:50:57;100512.72;;;26.47;100.00
36328;BME280;22354;50.012;8.264;2022-08-21T12:53:30;100515.97;;;26.65;100.00
36328;BME280;22354;50.012;8.264;2022-08-21T12:55:57;100507.78;;;27.24;100.00
36328;BME280;22354;50.012;8.264;2022-08-21T12:58:27;100512.00;;;26.56;100.00
36328;BME280;22354;50.012;8.264;2022-08-21T13:01:04;100513.88;;;26.51;100.00
36328;BME280;22354;50.012;8.264;2022-08-21T13:03:30;100498.03;;;26.85;100.00
36328;BME280;22354;50.012;8.264;2022-08-21T13:05:57;100498.22;;;27.32;100.00
36328;BME280;22354;50.012;8.264;2022-08-21T13:08:25;100494.75;;;28.26;100.00
36328;BME280;22354;50.012;8.264;2022-08-21T13:10:59;100490.44;;;27.93;100.00
36328;BME280;22354;50.012;8.264;2022-08-21T13:13:26;100478.66;;;28.08;100.00
36328;BME280;22354;50.012;8.264;2022-08-21T13:16:01;100484.91;;;27.56;100.00
36328;BME280;22354;50.012;8.264;2022-08-21T13:18:29;100486.91;;;27.28;100.00
36328;BME280;22354;50.012;8.264;2022-08-21T13:21:05;100490.66;;;27.17;100.00
36328;BME280;22354;50.012;8.264;2022-08-21T13:23:31;100492.28;;;26.86;100.00
36328;BME280;22354;50.012;8.264;2022-08-21T13:25:57;100499.88;;;26.52;100.00
36328;BME280;22354;50.012;8.264;2022-08-21T13:28:24;100492.28;;;26.37;100.00
36328;BME280;22354;50.012;8.264;2022-08-21T13:30:58;100483.59;;;26.45;100.00
36328;BME280;22354;50.012;8.264;2022-08-21T13:33:26;100483.09;;;26.75;100.00
36328;BME280;22354;50.012;8.264;2022-08-21T13:38:24;100478.63;;;26.96;100.00
36328;BME280;22354;50.012;8.264;2022-08-21T13:40:59;100464.56;;;27.20;100.00
36328;BME280;22354;50.012;8.264;2022-08-21T13:43:31;100463.72;;;27.51;100.00
36328;BME280;22354;50.012;8.264;2022-08-21T13:45:56;100468.47;;;27.61;100.00